CheckWX is a tool to help pilots better visualize weather data.  It is not intended as a substitute for an official pre-flight weather briefing.

05:08:30 UTC

KMBS TAF
Mbs International Airport
Saginaw, Michigan, USA
KMBS 252320Z 2600/2624 12007KT P6SM SCT250 FM261500 14011G18KT P6SM BKN050 BKN200 FM261900 14012G19KT P6SM OVC050 PROB30 2620/2623 -SHRA OVC035 FM262300 15011KT 6SM -RA BR BKN025 OVC050

Aug-26@
00:00 UTC

Aug-26 @ 00:00 UTC

Aug-26@
15:00 UTC

Aug-26 @ 15:00 UTC

KMBS 252320Z 2600/2624 12007KT P6SM SCT250
Wind
  • 120° at 7 KTS
Cloud Levels
  • Scattered at 25,000' AGL

Aug-26@
15:00 UTC

Aug-26 @ 15:00 UTC

Aug-26@
19:00 UTC

Aug-26 @ 19:00 UTC

FM261500 14011G18KT P6SM BKN050 BKN200

From

From Standard forecast or significant change

Wind
  • 140° at 11 KTS
  • {Gusting to 18 KTS
Cloud Levels
  • Broken at 5,000' AGL
  • Broken at 20,000' AGL

Aug-26@
19:00 UTC

Aug-26 @ 19:00 UTC

Aug-26@
23:00 UTC

Aug-26 @ 23:00 UTC

FM261900 14012G19KT P6SM OVC050

From

From Standard forecast or significant change

Wind
  • 140° at 12 KTS
  • {Gusting to 19 KTS
Cloud Levels
  • Overcast at 5,000' AGL

Aug-26@
20:00 UTC

Aug-26 @ 20:00 UTC

Aug-26@
23:00 UTC

Aug-26 @ 23:00 UTC

PROB30 2620/2623 -SHRA OVC035

Probable - 30% Likelihood

Probable - 30% Likelihood during this time.

Conditions
Light Rain
Cloud Levels
  • Overcast at 3,500' AGL

Aug-26@
23:00 UTC

Aug-26 @ 23:00 UTC

Aug-27@
00:00 UTC

Aug-27 @ 00:00 UTC

FM262300 15011KT 6SM -RA BR BKN025 OVC050

From

From Standard forecast or significant change

Wind
  • 150° at 11 KTS
Conditions
Light Rain, Mist
Cloud Levels
  • Broken at 2,500' AGL
  • Overcast at 5,000' AGL